Time;durP1;ratioP1;P1;durP2;ratioP2;P2;SDS_P1;SDS_P2;PMS_P1;PMS_P2;Temp;Humidity;BMP_temperature;BMP_pressure;BME280_temperature;BME280_humidity;BME280_pressure;Samples;Min_cycle;Max_cycle;Signal;HPM_P1;HPM_P2
2022/08/22 00:02:06;;;;;;;8.52;5.50;;;;;;;;;;4374176;32;20679;-86
2022/08/22 00:04:41;;;;;;;16.20;6.87;;;;;;;;;;4374093;32;20583;-87
2022/08/22 00:07:18;;;;;;;7.12;5.82;;;;;;;;;;4374382;32;20610;-87
2022/08/22 00:09:54;;;;;;;9.18;5.37;;;;;;;;;;4374088;32;20586;-86
2022/08/22 00:12:28;;;;;;;12.48;8.02;;;;;;;;;;4373952;32;20594;-86
2022/08/22 00:15:04;;;;;;;9.45;5.95;;;;;;;;;;4373786;32;20607;-86
2022/08/22 00:17:42;;;;;;;11.20;6.53;;;;;;;;;;4373940;32;20578;-86
2022/08/22 00:20:19;;;;;;;13.45;6.28;;;;;;;;;;4373742;32;20603;-87
2022/08/22 00:22:52;;;;;;;15.82;6.50;;;;;;;;;;4373829;32;20528;-87
2022/08/22 00:25:36;;;;;;;8.93;6.40;;;;;;;;;;4373477;32;20293;-87
2022/08/22 00:28:10;;;;;;;7.57;6.10;;;;;;;;;;4374002;32;20618;-86
2022/08/22 00:30:48;;;;;;;17.23;6.10;;;;;;;;;;4373653;32;20654;-87
2022/08/22 00:33:23;;;;;;;12.00;7.20;;;;;;;;;;4373918;32;20612;-87
2022/08/22 00:36:03;;;;;;;12.37;6.57;;;;;;;;;;4373615;32;20293;-86
2022/08/22 00:38:36;;;;;;;8.43;5.85;;;;;;;;;;4373438;32;20586;-87
2022/08/22 00:41:08;;;;;;;8.05;5.37;;;;;;;;;;4372955;32;20538;-87
2022/08/22 00:43:57;;;;;;;11.27;6.78;;;;;;;;;;4373488;32;20246;-87
2022/08/22 00:46:52;;;;;;;12.00;6.43;;;;;;;;;;4373738;32;20244;-87
2022/08/22 00:49:41;;;;;;;11.20;6.50;;;;;;;;;;4373646;32;20650;-87
2022/08/22 00:52:38;;;;;;;9.27;5.68;;;;;;;;;;4373631;32;20734;-87
2022/08/22 00:55:20;;;;;;;14.95;5.70;;;;;;;;;;4363984;32;20673;-87
2022/08/22 00:58:06;;;;;;;11.32;6.05;;;;;;;;;;4373404;32;20642;-86
2022/08/22 01:00:43;;;;;;;16.87;5.90;;;;;;;;;;4373212;32;20273;-86
2022/08/22 01:03:39;;;;;;;11.05;5.28;;;;;;;;;;4373352;32;20594;-86
2022/08/22 01:06:21;;;;;;;13.50;5.75;;;;;;;;;;4373417;32;20231;-87
2022/08/22 01:09:01;;;;;;;13.95;5.62;;;;;;;;;;4373604;32;20728;-87
2022/08/22 01:11:44;;;;;;;13.30;5.97;;;;;;;;;;4373577;32;20673;-87
2022/08/22 01:14:37;;;;;;;10.63;5.30;;;;;;;;;;4373504;32;20615;-87
2022/08/22 01:17:33;;;;;;;10.93;5.60;;;;;;;;;;4373243;32;20250;-86
2022/08/22 01:20:31;;;;;;;6.68;5.25;;;;;;;;;;4373029;32;20611;-87
2022/08/22 01:23:28;;;;;;;9.30;4.97;;;;;;;;;;4372936;32;20590;-86
2022/08/22 01:26:29;;;;;;;5.93;4.65;;;;;;;;;;4358344;32;20709;-86
2022/08/22 01:29:34;;;;;;;10.13;4.97;;;;;;;;;;4347936;32;20686;-87
2022/08/22 01:32:34;;;;;;;13.05;5.68;;;;;;;;;;4373280;32;20593;-86
2022/08/22 01:35:40;;;;;;;7.55;4.87;;;;;;;;;;4372900;32;20558;-86
2022/08/22 01:38:35;;;;;;;11.68;5.62;;;;;;;;;;4370893;32;20555;-86
2022/08/22 01:41:33;;;;;;;8.65;5.53;;;;;;;;;;4372826;32;20666;-86
2022/08/22 01:44:19;;;;;;;15.27;7.65;;;;;;;;;;4373374;32;20638;-86
2022/08/22 01:46:55;;;;;;;15.45;7.00;;;;;;;;;;4373115;32;20198;-86
2022/08/22 01:49:28;;;;;;;14.07;6.25;;;;;;;;;;4372809;32;20682;-86
2022/08/22 01:52:04;;;;;;;17.37;6.40;;;;;;;;;;4373181;32;20559;-86
2022/08/22 01:54:46;;;;;;;9.05;5.68;;;;;;;;;;4375806;32;20519;-86
2022/08/22 01:57:15;;;;;;;7.40;5.82;;;;;;;;;;4375867;32;20249;-86
2022/08/22 01:59:46;;;;;;;15.18;7.00;;;;;;;;;;4376093;32;20647;-86
2022/08/22 02:02:33;;;;;;;10.25;6.85;;;;;;;;;;4375747;32;20281;-86
2022/08/22 02:05:06;;;;;;;11.27;6.55;;;;;;;;;;4375565;32;20517;-86
2022/08/22 02:07:46;;;;;;;13.70;6.87;;;;;;;;;;4376033;32;20666;-86
2022/08/22 02:10:21;;;;;;;6.97;6.00;;;;;;;;;;4375813;32;20656;-86
2022/08/22 02:13:01;;;;;;;15.30;7.20;;;;;;;;;;4375521;32;20651;-86
2022/08/22 02:15:42;;;;;;;12.18;7.15;;;;;;;;;;4375588;32;20701;-86
2022/08/22 02:18:20;;;;;;;6.03;4.70;;;;;;;;;;4375586;32;20544;-85
2022/08/22 02:21:03;;;;;;;9.07;6.40;;;;;;;;;;4375584;32;20636;-87
2022/08/22 02:23:44;;;;;;;19.10;5.65;;;;;;;;;;4375537;32;20531;-86
2022/08/22 02:26:17;;;;;;;10.68;5.90;;;;;;;;;;4375256;32;20324;-88
2022/08/22 02:28:56;;;;;;;13.57;6.37;;;;;;;;;;4375484;32;20224;-88
2022/08/22 02:31:34;;;;;;;10.43;5.82;;;;;;;;;;4375188;32;20586;-87
2022/08/22 02:34:15;;;;;;;13.77;6.00;;;;;;;;;;4375248;32;20570;-87
2022/08/22 02:36:48;;;;;;;11.48;6.43;;;;;;;;;;4375712;32;20489;-88
2022/08/22 02:39:28;;;;;;;13.98;9.23;;;;;;;;;;4375194;32;20600;-87
2022/08/22 02:41:59;;;;;;;16.70;11.40;;;;;;;;;;4375245;32;20554;-87
2022/08/22 02:44:32;;;;;;;22.52;13.32;;;;;;;;;;4375053;32;20563;-87
2022/08/22 02:47:09;;;;;;;20.25;12.10;;;;;;;;;;4375470;32;20629;-87
2022/08/22 02:49:44;;;;;;;23.58;12.13;;;;;;;;;;4375056;32;20570;-88
2022/08/22 02:52:17;;;;;;;13.80;9.55;;;;;;;;;;4375470;32;20602;-88
2022/08/22 02:54:56;;;;;;;12.43;7.95;;;;;;;;;;4375256;32;20571;-87
2022/08/22 02:57:39;;;;;;;13.77;7.43;;;;;;;;;;4375040;32;20539;-88
2022/08/22 03:00:15;;;;;;;12.30;7.53;;;;;;;;;;4375118;32;20693;-88
2022/08/22 03:03:01;;;;;;;14.15;6.93;;;;;;;;;;4375290;32;20687;-88
2022/08/22 03:05:37;;;;;;;12.05;6.60;;;;;;;;;;4374421;32;20579;-88
2022/08/22 03:08:12;;;;;;;12.63;6.72;;;;;;;;;;4374966;32;20265;-88
2022/08/22 03:10:46;;;;;;;9.90;6.78;;;;;;;;;;4374949;32;20744;-88
2022/08/22 03:13:24;;;;;;;13.15;6.85;;;;;;;;;;4375066;32;20588;-87
2022/08/22 03:15:56;;;;;;;8.40;6.90;;;;;;;;;;4375465;32;20546;-87
2022/08/22 03:18:31;;;;;;;13.43;6.28;;;;;;;;;;4375030;32;20535;-88
2022/08/22 03:21:15;;;;;;;8.73;6.80;;;;;;;;;;4374818;32;20579;-88
2022/08/22 03:23:46;;;;;;;9.63;6.72;;;;;;;;;;4375177;32;20607;-87
2022/08/22 03:26:22;;;;;;;12.63;6.95;;;;;;;;;;4374473;32;20372;-88
2022/08/22 03:28:54;;;;;;;10.13;6.37;;;;;;;;;;4361573;32;20665;-87
2022/08/22 03:31:25;;;;;;;9.80;6.57;;;;;;;;;;4375211;32;20600;-87
2022/08/22 03:34:21;;;;;;;12.32;6.70;;;;;;;;;;4374887;32;20604;-87
2022/08/22 03:37:01;;;;;;;6.45;5.78;;;;;;;;;;4374840;32;20627;-87
2022/08/22 03:39:46;;;;;;;12.77;6.78;;;;;;;;;;4374366;32;20652;-86
2022/08/22 03:42:43;;;;;;;11.27;6.03;;;;;;;;;;4374479;32;20603;-88
2022/08/22 03:45:32;;;;;;;9.63;5.95;;;;;;;;;;4374444;32;20659;-86
2022/08/22 03:48:28;;;;;;;11.55;6.82;;;;;;;;;;4374622;32;20630;-87
2022/08/22 03:51:13;;;;;;;12.37;6.37;;;;;;;;;;4374247;32;20688;-87
2022/08/22 03:54:05;;;;;;;13.15;7.00;;;;;;;;;;4374148;32;20559;-87
2022/08/22 03:57:15;;;;;;;15.75;6.43;;;;;;;;;;4374347;32;20289;-87
2022/08/22 04:00:06;;;;;;;16.25;6.93;;;;;;;;;;4312990;33;20325;-87
2022/08/22 04:02:59;;;;;;;15.93;7.32;;;;;;;;;;4313354;33;20606;-87
2022/08/22 04:06:00;;;;;;;7.12;6.40;;;;;;;;;;4359923;32;20606;-86
2022/08/22 04:09:16;;;;;;;14.30;6.53;;;;;;;;;;4359501;32;20281;-85
2022/08/22 04:12:09;;;;;;;11.35;7.32;;;;;;;;;;4374269;32;20244;-86
2022/08/22 04:15:04;;;;;;;10.50;7.05;;;;;;;;;;4373732;32;20615;-86
2022/08/22 04:18:00;;;;;;;12.40;6.95;;;;;;;;;;4371019;32;20528;-86
2022/08/22 04:21:03;;;;;;;13.02;6.85;;;;;;;;;;4373734;32;20307;-86
2022/08/22 04:24:00;;;;;;;11.07;7.07;;;;;;;;;;4348669;32;20723;-86
2022/08/22 04:26:40;;;;;;;24.37;9.73;;;;;;;;;;4373170;32;20311;-86
2022/08/22 04:29:16;;;;;;;15.95;8.15;;;;;;;;;;4373640;32;20540;-86
2022/08/22 04:31:47;;;;;;;13.48;8.18;;;;;;;;;;4373979;32;20261;-86
2022/08/22 04:34:22;;;;;;;8.45;6.45;;;;;;;;;;4373804;32;20300;-87
2022/08/22 04:36:55;;;;;;;7.43;5.93;;;;;;;;;;4373806;32;20336;-86
2022/08/22 04:39:30;;;;;;;13.02;6.10;;;;;;;;;;4373872;32;20622;-86
2022/08/22 04:42:03;;;;;;;10.23;6.50;;;;;;;;;;4373806;32;20634;-86
2022/08/22 04:44:37;;;;;;;12.57;7.45;;;;;;;;;;4373693;32;20677;-86
2022/08/22 04:47:08;;;;;;;9.82;7.00;;;;;;;;;;4373388;32;20516;-86
2022/08/22 04:49:42;;;;;;;16.02;7.47;;;;;;;;;;4373439;32;20563;-86
2022/08/22 04:52:18;;;;;;;12.40;8.07;;;;;;;;;;4373817;32;20582;-86
2022/08/22 04:54:57;;;;;;;17.58;6.78;;;;;;;;;;4373567;32;20375;-86
2022/08/22 04:57:33;;;;;;;14.30;7.10;;;;;;;;;;4373710;32;20532;-86
2022/08/22 05:00:04;;;;;;;14.30;7.90;;;;;;;;;;4373327;32;20665;-84
2022/08/22 05:02:36;;;;;;;21.55;8.50;;;;;;;;;;4373480;32;20531;-87
2022/08/22 05:05:10;;;;;;;19.98;8.52;;;;;;;;;;4373080;32;20630;-86
2022/08/22 05:07:42;;;;;;;16.70;7.53;;;;;;;;;;4373556;32;20622;-86
2022/08/22 05:10:16;;;;;;;22.75;8.30;;;;;;;;;;4373284;32;20646;-85
2022/08/22 05:12:48;;;;;;;12.77;7.00;;;;;;;;;;4373387;32;20634;-85
2022/08/22 05:15:20;;;;;;;10.75;7.30;;;;;;;;;;4372983;32;20321;-86
2022/08/22 05:17:50;;;;;;;11.65;7.50;;;;;;;;;;4373543;32;20615;-87
2022/08/22 05:20:25;;;;;;;11.77;8.00;;;;;;;;;;4373104;32;20537;-87
2022/08/22 05:22:56;;;;;;;15.68;7.95;;;;;;;;;;4373121;32;20613;-87
2022/08/22 05:25:28;;;;;;;11.77;8.50;;;;;;;;;;4373094;32;20615;-87
2022/08/22 05:28:07;;;;;;;14.80;10.18;;;;;;;;;;4372983;32;20249;-87
2022/08/22 05:30:36;;;;;;;16.37;9.50;;;;;;;;;;4373010;32;20218;-86
2022/08/22 05:33:14;;;;;;;13.70;9.45;;;;;;;;;;4372787;32;20375;-85
2022/08/22 05:35:47;;;;;;;14.20;8.07;;;;;;;;;;4372985;32;20681;-83
2022/08/22 05:38:18;;;;;;;19.10;8.93;;;;;;;;;;4373064;32;20627;-84
2022/08/22 05:40:53;;;;;;;12.68;8.20;;;;;;;;;;4372679;32;20650;-83
2022/08/22 05:43:24;;;;;;;19.52;10.20;;;;;;;;;;4373004;32;20615;-85
2022/08/22 05:45:53;;;;;;;25.20;11.02;;;;;;;;;;4372974;32;20562;-85
2022/08/22 05:48:25;;;;;;;85.20;26.42;;;;;;;;;;4372817;32;20348;-83
2022/08/22 05:50:58;;;;;;;15.75;9.50;;;;;;;;;;4372696;32;20579;-84
2022/08/22 05:53:32;;;;;;;33.22;14.65;;;;;;;;;;4372813;32;20544;-84
2022/08/22 05:56:03;;;;;;;17.87;10.20;;;;;;;;;;4372853;32;20667;-84
2022/08/22 05:58:49;;;;;;;41.17;16.05;;;;;;;;;;4372747;32;20712;-86
2022/08/22 06:01:28;;;;;;;13.13;8.55;;;;;;;;;;4372462;32;20564;-84
2022/08/22 06:04:10;;;;;;;23.33;10.90;;;;;;;;;;4373055;32;20705;-85
2022/08/22 06:06:46;;;;;;;13.00;8.02;;;;;;;;;;4372616;32;20233;-84
2022/08/22 06:09:19;;;;;;;12.25;8.23;;;;;;;;;;4372892;32;20551;-84
2022/08/22 06:11:53;;;;;;;13.27;8.48;;;;;;;;;;4372709;32;20538;-83
2022/08/22 06:14:31;;;;;;;12.55;8.35;;;;;;;;;;4372691;32;20654;-83
2022/08/22 06:17:07;;;;;;;13.10;8.10;;;;;;;;;;4372579;32;20525;-84
2022/08/22 06:19:39;;;;;;;11.32;8.43;;;;;;;;;;4372497;32;20567;-83
2022/08/22 06:22:09;;;;;;;8.38;7.45;;;;;;;;;;4372421;32;20559;-83
2022/08/22 06:24:39;;;;;;;13.75;7.80;;;;;;;;;;4372261;32;20590;-83
2022/08/22 06:27:13;;;;;;;11.75;6.93;;;;;;;;;;4372321;32;20586;-84
2022/08/22 06:29:45;;;;;;;8.30;7.00;;;;;;;;;;4372717;32;20304;-83
2022/08/22 06:32:17;;;;;;;10.13;7.65;;;;;;;;;;4372452;32;20547;-84
2022/08/22 06:34:46;;;;;;;11.93;7.87;;;;;;;;;;4372583;32;20591;-84
2022/08/22 06:37:23;;;;;;;13.00;7.55;;;;;;;;;;4372459;32;20531;-83
2022/08/22 06:39:54;;;;;;;11.10;7.32;;;;;;;;;;4373361;32;20566;-84
2022/08/22 06:42:27;;;;;;;9.02;7.35;;;;;;;;;;4375156;32;20633;-82
2022/08/22 06:45:00;;;;;;;10.02;6.65;;;;;;;;;;4375011;32;20595;-83
2022/08/22 06:47:31;;;;;;;10.88;6.35;;;;;;;;;;4374951;32;20543;-84
2022/08/22 06:50:03;;;;;;;8.85;7.03;;;;;;;;;;4375022;32;20646;-82
2022/08/22 06:52:46;;;;;;;9.60;7.20;;;;;;;;;;4374950;32;20241;-83
2022/08/22 06:55:14;;;;;;;10.20;8.27;;;;;;;;;;4374801;32;20637;-82
2022/08/22 06:57:45;;;;;;;10.75;6.75;;;;;;;;;;4374822;32;20660;-82
2022/08/22 07:00:16;;;;;;;11.48;7.07;;;;;;;;;;4374881;32;20728;-83
2022/08/22 07:02:46;;;;;;;8.82;7.07;;;;;;;;;;4374605;32;20496;-82
2022/08/22 07:05:20;;;;;;;10.73;6.43;;;;;;;;;;4374580;32;20567;-82
2022/08/22 07:07:50;;;;;;;13.90;7.70;;;;;;;;;;4375102;32;20547;-83
2022/08/22 07:10:18;;;;;;;8.80;7.32;;;;;;;;;;4374502;32;20586;-82
2022/08/22 07:12:48;;;;;;;10.85;7.20;;;;;;;;;;4374602;32;20206;-88
2022/08/22 07:15:21;;;;;;;10.07;7.50;;;;;;;;;;4374709;32;20681;-84
2022/08/22 07:17:52;;;;;;;16.45;7.47;;;;;;;;;;4374604;32;20272;-82
2022/08/22 07:20:35;;;;;;;8.65;7.40;;;;;;;;;;4374715;32;20410;-84
2022/08/22 07:23:32;;;;;;;7.03;6.30;;;;;;;;;;4374895;32;20607;-83
2022/08/22 07:26:14;;;;;;;10.85;8.35;;;;;;;;;;4375035;32;20562;-81
2022/08/22 07:28:47;;;;;;;8.52;7.55;;;;;;;;;;4374582;32;20661;-83
2022/08/22 07:31:30;;;;;;;8.45;7.60;;;;;;;;;;4374439;32;20638;-83
2022/08/22 07:34:07;;;;;;;7.95;6.78;;;;;;;;;;4374437;32;20532;-85
2022/08/22 07:36:47;;;;;;;12.05;9.40;;;;;;;;;;4374483;32;20317;-84
2022/08/22 07:39:27;;;;;;;12.80;7.65;;;;;;;;;;4374565;32;20645;-85
2022/08/22 07:42:09;;;;;;;13.57;7.18;;;;;;;;;;4374581;32;20609;-85
2022/08/22 07:44:53;;;;;;;10.43;7.40;;;;;;;;;;4374260;32;20555;-85
2022/08/22 07:47:23;;;;;;;12.02;7.90;;;;;;;;;;4374234;32;20618;-85
2022/08/22 07:49:55;;;;;;;13.00;8.52;;;;;;;;;;4374189;32;20577;-86
2022/08/22 07:52:24;;;;;;;12.98;7.85;;;;;;;;;;4374575;32;20614;-83
2022/08/22 07:54:57;;;;;;;13.80;8.80;;;;;;;;;;4374367;32;20710;-85
2022/08/22 07:57:31;;;;;;;17.23;9.48;;;;;;;;;;4374003;32;20555;-83
2022/08/22 08:00:01;;;;;;;12.20;8.52;;;;;;;;;;4374002;32;20572;-85
2022/08/22 08:02:29;;;;;;;16.33;8.75;;;;;;;;;;4374619;32;20602;-83
2022/08/22 08:05:00;;;;;;;12.43;8.50;;;;;;;;;;4374157;32;20707;-89
2022/08/22 08:07:30;;;;;;;13.07;9.45;;;;;;;;;;4374067;32;20324;-87
2022/08/22 08:10:03;;;;;;;13.07;8.30;;;;;;;;;;4373874;32;20572;-87
2022/08/22 08:12:34;;;;;;;12.18;7.70;;;;;;;;;;4374337;32;20503;-86
2022/08/22 08:15:03;;;;;;;10.48;8.85;;;;;;;;;;4374345;32;20466;-86
2022/08/22 08:17:34;;;;;;;9.50;7.97;;;;;;;;;;4374565;32;20596;-91
2022/08/22 08:20:07;;;;;;;11.52;8.10;;;;;;;;;;4373626;32;20548;-83
2022/08/22 08:22:36;;;;;;;13.23;8.35;;;;;;;;;;4373890;32;20274;-86
2022/08/22 08:25:07;;;;;;;14.82;7.72;;;;;;;;;;4373738;32;20649;-89
2022/08/22 08:30:25;;;;;;;8.85;8.02;;;;;;;;;;4373682;32;20316;-83
2022/08/22 08:32:55;;;;;;;10.77;8.73;;;;;;;;;;4373778;32;20588;-83
2022/08/22 08:35:30;;;;;;;9.07;8.00;;;;;;;;;;4373627;32;20632;-83
2022/08/22 08:38:01;;;;;;;9.90;8.32;;;;;;;;;;4373522;32;20511;-82
2022/08/22 08:40:58;;;;;;;10.57;7.72;;;;;;;;;;4373483;32;20528;-82
2022/08/22 08:43:35;;;;;;;9.73;7.43;;;;;;;;;;4373445;32;20558;-83
2022/08/22 08:46:48;;;;;;;11.07;8.27;;;;;;;;;;4373520;32;20747;-83
2022/08/22 08:49:51;;;;;;;11.07;7.90;;;;;;;;;;4338514;32;20576;-83
2022/08/22 08:52:39;;;;;;;13.85;8.90;;;;;;;;;;4363969;32;20670;-83
2022/08/22 08:55:18;;;;;;;11.63;9.63;;;;;;;;;;4371419;32;20662;-83
2022/08/22 08:58:01;;;;;;;12.23;8.20;;;;;;;;;;4373321;32;20583;-83
2022/08/22 09:00:46;;;;;;;12.40;9.15;;;;;;;;;;4373557;32;20628;-83
2022/08/22 09:03:20;;;;;;;10.18;9.02;;;;;;;;;;4372893;32;20509;-83
2022/08/22 09:06:05;;;;;;;10.98;8.68;;;;;;;;;;4373196;32;20536;-82
2022/08/22 09:08:56;;;;;;;9.88;8.48;;;;;;;;;;4373743;32;20710;-82
2022/08/22 09:12:02;;;;;;;12.45;9.40;;;;;;;;;;4373303;32;20321;-82
2022/08/22 09:14:54;;;;;;;13.55;8.27;;;;;;;;;;4373419;32;20555;-83
2022/08/22 09:17:56;;;;;;;13.10;8.68;;;;;;;;;;4373326;32;20610;-83
2022/08/22 09:20:51;;;;;;;9.63;8.38;;;;;;;;;;4368484;32;20742;-82
2022/08/22 09:23:46;;;;;;;11.38;8.40;;;;;;;;;;4373248;32;20514;-83
2022/08/22 09:26:17;;;;;;;15.35;8.77;;;;;;;;;;4372928;32;20658;-83
2022/08/22 09:28:53;;;;;;;14.38;8.18;;;;;;;;;;4373085;32;20531;-83
2022/08/22 09:31:44;;;;;;;14.90;8.30;;;;;;;;;;4373083;32;20650;-84
2022/08/22 09:34:17;;;;;;;11.70;7.82;;;;;;;;;;4373150;32;20509;-83
2022/08/22 09:37:06;;;;;;;11.73;8.02;;;;;;;;;;4373174;32;20595;-84
2022/08/22 09:39:40;;;;;;;9.18;8.27;;;;;;;;;;4372800;32;20650;-83
2022/08/22 09:42:18;;;;;;;18.15;7.85;;;;;;;;;;4373134;32;20276;-84
2022/08/22 09:44:59;;;;;;;10.73;8.60;;;;;;;;;;4372968;32;20336;-84
2022/08/22 09:47:34;;;;;;;9.85;8.77;;;;;;;;;;4372931;32;20576;-84
2022/08/22 09:50:13;;;;;;;12.27;7.82;;;;;;;;;;4373316;32;20558;-84
2022/08/22 09:53:06;;;;;;;13.90;9.15;;;;;;;;;;4373176;32;20528;-84
2022/08/22 09:55:42;;;;;;;8.90;8.00;;;;;;;;;;4372642;32;20470;-84
2022/08/22 09:58:19;;;;;;;11.80;8.80;;;;;;;;;;4373329;32;20583;-83
2022/08/22 10:00:55;;;;;;;11.05;7.93;;;;;;;;;;4372529;32;20555;-84
2022/08/22 10:03:33;;;;;;;8.98;8.07;;;;;;;;;;4372944;32;20289;-83
2022/08/22 10:06:05;;;;;;;8.88;7.35;;;;;;;;;;4359903;32;20583;-84
2022/08/22 10:08:39;;;;;;;8.98;8.18;;;;;;;;;;4372821;32;20543;-86
2022/08/22 10:11:30;;;;;;;11.38;8.07;;;;;;;;;;4373084;32;20290;-85
2022/08/22 10:14:02;;;;;;;9.90;8.50;;;;;;;;;;4369740;32;20647;-85
2022/08/22 10:16:43;;;;;;;21.02;9.00;;;;;;;;;;4375881;32;20548;-86
2022/08/22 10:19:17;;;;;;;8.95;7.60;;;;;;;;;;4375728;32;20512;-85
2022/08/22 10:22:06;;;;;;;16.73;8.70;;;;;;;;;;4375624;32;20422;-86
2022/08/22 10:24:43;;;;;;;11.07;8.55;;;;;;;;;;4375550;32;20392;-85
2022/08/22 10:27:16;;;;;;;12.77;9.07;;;;;;;;;;4375894;32;20535;-85
2022/08/22 10:30:03;;;;;;;11.45;7.90;;;;;;;;;;4375580;32;20524;-86
2022/08/22 10:32:37;;;;;;;12.25;8.40;;;;;;;;;;4375724;32;20331;-84
2022/08/22 10:35:18;;;;;;;7.53;6.55;;;;;;;;;;4375827;32;20635;-86
2022/08/22 10:37:55;;;;;;;11.50;9.35;;;;;;;;;;4375763;32;20392;-86
2022/08/22 10:40:28;;;;;;;9.05;7.68;;;;;;;;;;4375376;32;20547;-85
2022/08/22 10:43:01;;;;;;;10.60;8.23;;;;;;;;;;4375747;32;20574;-86
2022/08/22 10:45:33;;;;;;;8.20;7.40;;;;;;;;;;4375493;32;20533;-85
2022/08/22 10:48:36;;;;;;;10.00;8.48;;;;;;;;;;4375748;32;20492;-85
2022/08/22 10:51:24;;;;;;;12.02;9.10;;;;;;;;;;4370629;32;20276;-84
2022/08/22 10:54:23;;;;;;;9.43;8.32;;;;;;;;;;4375442;32;20262;-83
2022/08/22 10:56:58;;;;;;;11.75;8.10;;;;;;;;;;4375135;32;20606;-84
2022/08/22 10:59:38;;;;;;;9.23;7.37;;;;;;;;;;4375439;32;20648;-84
2022/08/22 11:02:32;;;;;;;12.18;7.40;;;;;;;;;;4375508;32;20643;-84
2022/08/22 11:05:21;;;;;;;12.45;8.35;;;;;;;;;;4375259;32;20670;-85
2022/08/22 11:08:05;;;;;;;11.10;7.75;;;;;;;;;;4375374;32;20540;-84
2022/08/22 11:10:47;;;;;;;10.35;8.23;;;;;;;;;;4374986;32;20344;-84
2022/08/22 11:13:25;;;;;;;12.48;8.27;;;;;;;;;;4375229;32;20671;-85
2022/08/22 11:16:01;;;;;;;16.05;8.95;;;;;;;;;;4374734;32;20583;-84
2022/08/22 11:18:58;;;;;;;11.10;7.57;;;;;;;;;;4375050;32;20596;-84
2022/08/22 11:21:33;;;;;;;8.57;7.70;;;;;;;;;;4374940;32;20700;-85
2022/08/22 11:24:15;;;;;;;14.98;7.72;;;;;;;;;;4374662;32;20287;-84
2022/08/22 11:26:48;;;;;;;18.35;8.13;;;;;;;;;;4374218;32;20636;-85
2022/08/22 11:29:31;;;;;;;16.25;8.43;;;;;;;;;;4374927;32;20611;-85
2022/08/22 11:32:06;;;;;;;12.37;8.20;;;;;;;;;;4375004;32;20605;-85
2022/08/22 11:34:44;;;;;;;14.65;8.32;;;;;;;;;;4375002;32;20525;-85
2022/08/22 11:37:34;;;;;;;11.02;8.30;;;;;;;;;;4375130;32;20322;-84
2022/08/22 11:40:13;;;;;;;10.70;7.50;;;;;;;;;;4374488;32;20653;-84
2022/08/22 11:42:46;;;;;;;11.95;8.30;;;;;;;;;;4374617;32;20567;-84
2022/08/22 11:45:21;;;;;;;9.90;7.50;;;;;;;;;;4374607;32;20603;-84
2022/08/22 11:47:59;;;;;;;11.02;7.78;;;;;;;;;;4374506;32;20505;-85
2022/08/22 11:50:37;;;;;;;11.70;8.80;;;;;;;;;;4375175;32;20600;-86
2022/08/22 11:53:25;;;;;;;13.25;8.35;;;;;;;;;;4374305;32;20662;-83
2022/08/22 11:56:09;;;;;;;11.07;8.48;;;;;;;;;;4374570;32;20653;-85
2022/08/22 11:58:48;;;;;;;9.95;8.60;;;;;;;;;;4374357;32;20206;-83
2022/08/22 12:01:18;;;;;;;14.52;8.60;;;;;;;;;;4374025;32;20549;-85
2022/08/22 12:04:00;;;;;;;13.55;10.00;;;;;;;;;;4374264;32;20714;-85
2022/08/22 12:06:51;;;;;;;11.80;8.73;;;;;;;;;;4374166;32;20350;-84
2022/08/22 12:09:27;;;;;;;8.50;7.68;;;;;;;;;;4374585;32;20600;-84
2022/08/22 12:12:07;;;;;;;10.23;6.37;;;;;;;;;;4374170;32;20686;-84
2022/08/22 12:14:41;;;;;;;8.60;6.25;;;;;;;;;;4374147;32;20645;-84
2022/08/22 12:17:19;;;;;;;12.90;7.18;;;;;;;;;;4374143;32;20539;-84
2022/08/22 12:19:56;;;;;;;11.15;7.00;;;;;;;;;;4374156;32;20673;-85
2022/08/22 12:23:02;;;;;;;9.43;5.97;;;;;;;;;;4374263;32;20686;-85
2022/08/22 12:25:54;;;;;;;7.53;6.12;;;;;;;;;;4374269;32;20594;-84
2022/08/22 12:28:34;;;;;;;8.63;5.45;;;;;;;;;;4374121;32;20548;-85
2022/08/22 12:31:13;;;;;;;11.65;5.85;;;;;;;;;;4373996;32;20530;-85
2022/08/22 12:34:02;;;;;;;7.90;5.10;;;;;;;;;;4374165;32;20531;-85
2022/08/22 12:37:07;;;;;;;5.95;5.25;;;;;;;;;;4371721;32;20609;-84
2022/08/22 12:39:53;;;;;;;6.87;4.62;;;;;;;;;;4373745;32;20692;-84
2022/08/22 12:42:44;;;;;;;7.00;4.40;;;;;;;;;;4373810;32;20662;-85
2022/08/22 12:45:35;;;;;;;9.45;5.00;;;;;;;;;;4373623;32;20604;-85
2022/08/22 12:48:16;;;;;;;10.45;6.68;;;;;;;;;;4373552;32;20234;-83
2022/08/22 12:50:49;;;;;;;12.60;7.40;;;;;;;;;;4373524;32;20610;-85
2022/08/22 12:53:39;;;;;;;6.57;5.93;;;;;;;;;;4373629;32;20717;-85
2022/08/22 12:56:22;;;;;;;11.12;8.20;;;;;;;;;;4373530;32;20560;-85
2022/08/22 12:59:12;;;;;;;14.95;7.70;;;;;;;;;;4374078;32;20606;-85
2022/08/22 13:01:45;;;;;;;8.80;7.43;;;;;;;;;;4373590;32;20646;-85
2022/08/22 13:04:16;;;;;;;10.38;7.25;;;;;;;;;;4373556;32;20530;-85
2022/08/22 13:06:52;;;;;;;11.30;7.47;;;;;;;;;;4373349;32;20349;-86
2022/08/22 13:09:27;;;;;;;12.73;7.93;;;;;;;;;;4373487;32;20551;-85
2022/08/22 13:11:59;;;;;;;12.00;7.87;;;;;;;;;;4373494;32;20710;-84
2022/08/22 13:14:29;;;;;;;12.07;7.53;;;;;;;;;;4373262;32;20283;-84
2022/08/22 13:17:01;;;;;;;11.68;7.43;;;;;;;;;;4373092;32;20315;-84
2022/08/22 13:19:34;;;;;;;9.63;7.87;;;;;;;;;;4373539;32;20581;-85
2022/08/22 13:22:07;;;;;;;17.73;8.25;;;;;;;;;;4359800;32;20683;-84
2022/08/22 13:24:40;;;;;;;7.90;7.12;;;;;;;;;;4373166;32;20644;-84
2022/08/22 13:27:14;;;;;;;9.70;8.02;;;;;;;;;;4373178;32;20567;-83
2022/08/22 13:29:46;;;;;;;12.27;7.62;;;;;;;;;;4373756;32;20623;-86
2022/08/22 13:32:23;;;;;;;8.57;6.50;;;;;;;;;;4373581;32;20684;-85
2022/08/22 13:34:54;;;;;;;10.40;6.57;;;;;;;;;;4373348;32;20198;-86
2022/08/22 13:37:25;;;;;;;10.35;6.85;;;;;;;;;;4373170;32;20356;-86
2022/08/22 13:39:59;;;;;;;14.10;6.37;;;;;;;;;;4373589;32;20619;-83
2022/08/22 13:42:29;;;;;;;34.15;7.55;;;;;;;;;;4373435;32;20269;-83
2022/08/22 13:44:58;;;;;;;6.97;6.15;;;;;;;;;;4373170;32;20562;-83
2022/08/22 13:47:29;;;;;;;13.10;6.40;;;;;;;;;;4373006;32;20686;-82
2022/08/22 13:50:07;;;;;;;9.43;5.40;;;;;;;;;;4375376;32;20536;-82
2022/08/22 13:52:43;;;;;;;10.35;5.28;;;;;;;;;;4376218;32;20536;-82
2022/08/22 13:55:16;;;;;;;7.00;4.03;;;;;;;;;;4376180;32;20315;-82
2022/08/22 13:57:46;;;;;;;9.45;4.10;;;;;;;;;;4376065;32;20594;-82
2022/08/22 14:01:07;;;;;;;11.18;3.78;;;;;;;;;;4376194;32;20555;-82
2022/08/22 14:03:47;;;;;;;10.80;4.60;;;;;;;;;;4376289;32;20535;-81
2022/08/22 14:06:27;;;;;;;10.23;4.80;;;;;;;;;;4376004;32;20547;-82
2022/08/22 14:08:59;;;;;;;6.47;4.32;;;;;;;;;;4376010;32;20528;-82
2022/08/22 14:11:33;;;;;;;8.15;4.65;;;;;;;;;;4376053;32;20655;-83
2022/08/22 14:14:03;;;;;;;8.25;4.90;;;;;;;;;;4376621;32;20634;-82
2022/08/22 14:16:37;;;;;;;15.68;5.00;;;;;;;;;;4375983;32;20685;-82
2022/08/22 14:19:08;;;;;;;15.02;5.87;;;;;;;;;;4375924;32;20539;-82
2022/08/22 14:21:43;;;;;;;9.73;5.60;;;;;;;;;;4375737;32;20616;-83
2022/08/22 14:24:17;;;;;;;7.55;5.37;;;;;;;;;;4375792;32;20232;-82
2022/08/22 14:26:52;;;;;;;18.62;7.45;;;;;;;;;;4375711;32;20624;-82
2022/08/22 14:29:22;;;;;;;33.10;8.18;;;;;;;;;;4375964;32;20523;-82
2022/08/22 14:31:58;;;;;;;12.23;5.72;;;;;;;;;;4375546;32;20229;-82
2022/08/22 14:34:29;;;;;;;9.13;6.20;;;;;;;;;;4375834;32;20587;-84
2022/08/22 14:37:02;;;;;;;8.23;6.62;;;;;;;;;;4375745;32;20689;-83
2022/08/22 14:39:35;;;;;;;14.98;7.18;;;;;;;;;;4375594;32;20575;-82
2022/08/22 14:42:08;;;;;;;8.00;5.60;;;;;;;;;;4375770;32;20266;-83
2022/08/22 14:44:42;;;;;;;15.98;7.20;;;;;;;;;;4375402;32;20622;-83
2022/08/22 14:47:21;;;;;;;17.73;8.02;;;;;;;;;;4375389;32;20336;-84
2022/08/22 14:49:55;;;;;;;15.23;7.78;;;;;;;;;;4375451;32;20598;-84
2022/08/22 14:52:34;;;;;;;12.20;8.18;;;;;;;;;;4375519;32;20347;-83
2022/08/22 14:55:17;;;;;;;26.87;8.57;;;;;;;;;;4375399;32;20264;-83
2022/08/22 14:57:52;;;;;;;13.62;8.27;;;;;;;;;;4375190;32;20651;-83
2022/08/22 15:00:32;;;;;;;13.85;9.02;;;;;;;;;;4374641;32;20562;-83
2022/08/22 15:03:12;;;;;;;12.10;8.77;;;;;;;;;;4375026;32;20574;-84
2022/08/22 15:05:51;;;;;;;15.15;9.45;;;;;;;;;;4375144;32;20597;-84
2022/08/22 15:08:25;;;;;;;14.85;9.60;;;;;;;;;;4374918;32;20585;-85
2022/08/22 15:11:07;;;;;;;11.50;9.55;;;;;;;;;;4375138;32;20547;-84
2022/08/22 15:13:36;;;;;;;13.70;10.18;;;;;;;;;;4374926;32;20564;-83
2022/08/22 15:16:15;;;;;;;15.05;12.05;;;;;;;;;;4375239;32;20584;-83
2022/08/22 15:18:44;;;;;;;18.02;11.43;;;;;;;;;;4374874;32;20308;-83
2022/08/22 15:21:21;;;;;;;20.83;12.18;;;;;;;;;;4374553;32;20501;-86
2022/08/22 15:23:50;;;;;;;23.30;11.65;;;;;;;;;;4374775;32;20477;-83
2022/08/22 15:26:24;;;;;;;21.30;11.63;;;;;;;;;;4374709;32;20365;-84
2022/08/22 15:28:57;;;;;;;17.52;12.35;;;;;;;;;;4374731;32;20630;-85
2022/08/22 15:31:27;;;;;;;23.65;10.65;;;;;;;;;;4374773;32;20631;-85
2022/08/22 15:34:07;;;;;;;19.90;11.80;;;;;;;;;;4374697;32;20544;-84
2022/08/22 15:36:59;;;;;;;24.02;10.30;;;;;;;;;;4375475;32;20573;-84
2022/08/22 15:39:31;;;;;;;20.90;12.10;;;;;;;;;;4374239;32;20402;-84
2022/08/22 15:42:00;;;;;;;13.00;11.65;;;;;;;;;;4374752;32;20568;-84
2022/08/22 15:44:31;;;;;;;22.05;10.45;;;;;;;;;;4374568;32;20654;-84
2022/08/22 15:47:10;;;;;;;18.10;9.43;;;;;;;;;;4374369;32;20591;-84